<?xml version="1.0" encoding="utf-8"?>
<gpx xmlns:xsi="http://www.w3.org/2001/XMLSchema-instance" xmlns:xsd="http://www.w3.org/2001/XMLSchema" version="1.1" creator="Shapelink.com" xmlns="http://www.topografix.com/GPX/1/1" xmlns:gpxtpx="http://www.garmin.com/xmlschemas/TrackPointExtension/v1">
  <metadata>
    <name>Övrigt 1.45 km, 2020-07-04</name>
    <desc></desc>
    <author><name>Marian Moron</name></author> 
    <time>2020-07-04T21:18:29Z</time>
  </metadata>
  <trk>
    <name>Övrigt 1.45 km, 2020-07-04</name>
    <trkseg>
      <trkpt lat="51.229894353282" lon="4.458860418243">
        <ele>12.2</ele>
        <time>2020-07-04T21:18:29Z</time>
      </trkpt>
      <trkpt lat="51.230043886378" lon="4.458985308553">
        <ele>5.4</ele>
        <time>2020-07-04T21:18:51Z</time>
      </trkpt>
      <trkpt lat="51.23037228922" lon="4.458926719072">
        <ele>2.4</ele>
        <time>2020-07-04T21:19:09Z</time>
      </trkpt>
      <trkpt lat="51.230477565884" lon="4.458843570624">
        <ele>2.4</ele>
        <time>2020-07-04T21:19:39Z</time>
      </trkpt>
      <trkpt lat="51.23063883364" lon="4.458795961432">
        <ele>3.4</ele>
        <time>2020-07-04T21:20:00Z</time>
      </trkpt>
      <trkpt lat="51.230859361429" lon="4.458694205166">
        <ele>4.2</ele>
        <time>2020-07-04T21:20:27Z</time>
      </trkpt>
      <trkpt lat="51.231214753989" lon="4.458388181997">
        <ele>1</ele>
        <time>2020-07-04T21:22:54Z</time>
      </trkpt>
      <trkpt lat="51.231312403124" lon="4.458346272497">
        <ele>0</ele>
        <time>2020-07-04T21:23:04Z</time>
      </trkpt>
      <trkpt lat="51.231498146028" lon="4.458543582423">
        <ele>4.6</ele>
        <time>2020-07-04T21:24:26Z</time>
      </trkpt>
      <trkpt lat="51.231580204829" lon="4.458726140205">
        <ele>0</ele>
        <time>2020-07-04T21:24:41Z</time>
      </trkpt>
      <trkpt lat="51.231608954746" lon="4.458744496566">
        <ele>0</ele>
        <time>2020-07-04T21:24:44Z</time>
      </trkpt>
      <trkpt lat="51.231718254722" lon="4.459056051789">
        <ele>1.8</ele>
        <time>2020-07-04T21:25:08Z</time>
      </trkpt>
      <trkpt lat="51.231745663535" lon="4.45918002009">
        <ele>2.6</ele>
        <time>2020-07-04T21:25:22Z</time>
      </trkpt>
      <trkpt lat="51.231843731765" lon="4.459878986731">
        <ele>0</ele>
        <time>2020-07-04T21:26:07Z</time>
      </trkpt>
      <trkpt lat="51.232052776351" lon="4.460398413074">
        <ele>1.6</ele>
        <time>2020-07-04T21:26:59Z</time>
      </trkpt>
      <trkpt lat="51.232087728874" lon="4.460373770288">
        <ele>2</ele>
        <time>2020-07-04T21:27:03Z</time>
      </trkpt>
      <trkpt lat="51.232182444344" lon="4.460296321532">
        <ele>3.8</ele>
        <time>2020-07-04T21:27:17Z</time>
      </trkpt>
      <trkpt lat="51.232315548916" lon="4.4602101556">
        <ele>12.4</ele>
        <time>2020-07-04T21:27:41Z</time>
      </trkpt>
      <trkpt lat="51.23276029253" lon="4.46003832665">
        <ele>18.4</ele>
        <time>2020-07-04T21:28:12Z</time>
      </trkpt>
      <trkpt lat="51.232977048464" lon="4.460131868654">
        <ele>22</ele>
        <time>2020-07-04T21:28:38Z</time>
      </trkpt>
      <trkpt lat="51.232993141712" lon="4.460212167256">
        <ele>21.2</ele>
        <time>2020-07-04T21:28:45Z</time>
      </trkpt>
      <trkpt lat="51.233163797196" lon="4.460608463488">
        <ele>29</ele>
        <time>2020-07-04T21:29:08Z</time>
      </trkpt>
      <trkpt lat="51.233197743891" lon="4.460929657896">
        <ele>27.8</ele>
        <time>2020-07-04T21:29:23Z</time>
      </trkpt>
      <trkpt lat="51.233214842967" lon="4.461291253062">
        <ele>23.8</ele>
        <time>2020-07-04T21:29:57Z</time>
      </trkpt>
      <trkpt lat="51.233268403308" lon="4.461542290967">
        <ele>24.2</ele>
        <time>2020-07-04T21:30:28Z</time>
      </trkpt>
      <trkpt lat="51.233413829273" lon="4.462197420271">
        <ele>18.2</ele>
        <time>2020-07-04T21:31:09Z</time>
      </trkpt>
      <trkpt lat="51.233256836286" lon="4.462656748391">
        <ele>18.2</ele>
        <time>2020-07-04T21:31:56Z</time>
      </trkpt>
      <trkpt lat="51.233159606246" lon="4.462711398379">
        <ele>17.4</ele>
        <time>2020-07-04T21:32:05Z</time>
      </trkpt>
      <trkpt lat="51.232711845148" lon="4.462846933702">
        <ele>14.8</ele>
        <time>2020-07-04T21:32:39Z</time>
      </trkpt>
      <trkpt lat="51.232450246049" lon="4.462857411077">
        <ele>10.4</ele>
        <time>2020-07-04T21:33:11Z</time>
      </trkpt>
      <trkpt lat="51.232376485329" lon="4.462852884851">
        <ele>8.2</ele>
        <time>2020-07-04T21:33:21Z</time>
      </trkpt>
      <trkpt lat="51.232353016009" lon="4.462848107168">
        <ele>7.8</ele>
        <time>2020-07-04T21:33:23Z</time>
      </trkpt>
      <trkpt lat="51.232091584548" lon="4.463033263339">
        <ele>0</ele>
        <time>2020-07-04T21:36:25Z</time>
      </trkpt>
      <trkpt lat="51.232036850741" lon="4.463371724461">
        <ele>0.2</ele>
        <time>2020-07-04T21:37:03Z</time>
      </trkpt>
      <trkpt lat="51.231933753371" lon="4.463558473193">
        <ele>2</ele>
        <time>2020-07-04T21:37:20Z</time>
      </trkpt>
      <trkpt lat="51.231835349865" lon="4.463554030786">
        <ele>4.4</ele>
        <time>2020-07-04T21:37:31Z</time>
      </trkpt>
      <trkpt lat="51.231529075239" lon="4.463381782741">
        <ele>1</ele>
        <time>2020-07-04T21:38:27Z</time>
      </trkpt>
      <trkpt lat="51.231352552425" lon="4.463004094327">
        <ele>0</ele>
        <time>2020-07-04T21:39:23Z</time>
      </trkpt>
      <trkpt lat="51.231250377064" lon="4.462633111433">
        <ele>0</ele>
        <time>2020-07-04T21:40:18Z</time>
      </trkpt>
      <trkpt lat="51.231208467564" lon="4.462037996533">
        <ele>0</ele>
        <time>2020-07-04T21:42:15Z</time>
      </trkpt>
      <trkpt lat="51.230944856809" lon="4.461459477795">
        <ele>0</ele>
        <time>2020-07-04T21:43:48Z</time>
      </trkpt>
      <trkpt lat="51.230752240747" lon="4.460810467278">
        <ele>0</ele>
        <time>2020-07-04T21:44:58Z</time>
      </trkpt>
      <trkpt lat="51.230746876331" lon="4.460606954746">
        <ele>0</ele>
        <time>2020-07-04T21:45:12Z</time>
      </trkpt>
      <trkpt lat="51.230650316843" lon="4.459947466854">
        <ele>0</ele>
        <time>2020-07-04T21:46:27Z</time>
      </trkpt>
      <trkpt lat="51.230591224448" lon="4.459894912341">
        <ele>0</ele>
        <time>2020-07-04T21:46:35Z</time>
      </trkpt>
      <trkpt lat="51.23040665501" lon="4.459258474674">
        <ele>0</ele>
        <time>2020-07-04T21:47:24Z</time>
      </trkpt>
      <trkpt lat="51.230406068277" lon="4.459254702819">
        <ele>0</ele>
        <time>2020-07-04T21:47:36Z</time>
      </trkpt>
      <trkpt lat="51.230261899597" lon="4.458888162332">
        <ele>0</ele>
        <time>2020-07-04T21:48:17Z</time>
      </trkpt>
      <trkpt lat="51.230207081971" lon="4.458841558968">
        <ele>0</ele>
        <time>2020-07-04T21:48:23Z</time>
      </trkpt>
      <trkpt lat="51.229969203649" lon="4.45880534916">
        <ele>0</ele>
        <time>2020-07-04T21:48:45Z</time>
      </trkpt>
      <trkpt lat="51.229919415163" lon="4.458783137125">
        <ele>0</ele>
        <time>2020-07-04T21:48:49Z</time>
      </trkpt>
      <trkpt lat="51.229908602512" lon="4.458705269274">
        <ele>0</ele>
        <time>2020-07-04T21:48:56Z</time>
      </trkpt>
      <trkpt lat="51.229905501209" lon="4.458180562334">
        <ele>6.2</ele>
        <time>2020-07-04T21:49:43Z</time>
      </trkpt>
      <trkpt lat="51.229836434353" lon="4.457970679558">
        <ele>1.2</ele>
        <time>2020-07-04T21:50:03Z</time>
      </trkpt>
      <trkpt lat="51.229687739447" lon="4.457983839141">
        <ele>0</ele>
        <time>2020-07-04T21:50:36Z</time>
      </trkpt>
    </trkseg>
  </trk>
</gpx>